Aviation Digital Data Service (ADDS)

Output produced by METARs form (2115 UTC 30 July 2014)
found at http://www.aviationweather.gov/adds/metars/
 
KBFD 302053Z AUTO 24006KT 10SM FEW008 FEW012 SCT120 16/14 A3003 RMK AO2 LTG DSNT N AND SE RAE26 SLP166 P0002 60003 T01610139 53001
KBFD 301953Z AUTO 23003KT 9SM -RA SCT075 BKN095 BKN120 16/13 A3003 RMK AO2 LTG DSNT ALQDS RAB00 SLP166 P0001 T01610133
KBFD 301921Z AUTO VRB03KT 10SM -RA FEW026 FEW055 OVC080 17/13 A3003 RMK AO2 LTG DSNT ALQDS RAB00 P0001 T01670133
KBFD 301902Z AUTO VRB03KT 10SM VCTS -RA FEW039 FEW060 BKN080 17/13 A3002 RMK AO2 LTG DSNT ALQDS RAB00 P0000 T01720128
KBFD 301853Z AUTO 22004KT 10SM FEW039 SCT080 SCT095 17/12 A3002 RMK AO2 LTG DSNT S-NW SLP164 T01720122
KBFD 301753Z AUTO VRB06KT 10SM FEW014 FEW020 18/12 A3003 RMK AO2 LTG DSNT W SLP168 60011 T01780122 10183 20122 58009
KBFD 301742Z AUTO 26010G15KT 10SM SCT014 18/13 A3004 RMK AO2 LTG DSNT SW T01830128
KBFD 301724Z AUTO VRB05KT 10SM BKN013 17/13 A3004 RMK AO2 LTG DSNT W T01670133
KBFD 301653Z AUTO VRB05KT 10SM SCT008 BKN019 BKN080 16/13 A3005 RMK AO2 LTG DSNT S SLP175 T01610133
KBFD 301621Z AUTO VRB04KT 10SM BKN006 BKN060 BKN095 14/13 A3006 RMK AO2 CIG 004V011 T01440128
KBFD 301553Z AUTO 19008KT 10SM SCT004 BKN060 OVC080 13/12 A3006 RMK AO2 RAE52 SLP178 P0010 T01330122
KBFD 301538Z AUTO 18006KT 7SM -RA FEW005 BKN065 OVC080 13/12 A3006 RMK AO2 P0010 T01280122
KBFD 301531Z AUTO 19007KT 5SM -RA BR SCT042 OVC070 13/12 A3006 RMK AO2 P0010 T01280117
KBFD 301506Z AUTO 19005KT 1 3/4SM +RA BR FEW008 BKN047 OVC065 13/12 A3006 RMK AO2 P0004 T01280117
KBFD 301453Z AUTO 21005KT 7SM -RA FEW008 SCT025 OVC055 13/11 A3006 RMK AO2 RAE01B33 SLP179 P0001 60001 T01330111 52002
KBFD 301420Z AUTO 21004KT 10SM FEW008 OVC019 13/11 A3005 RMK AO2 RAE01 P0000 T01330111
KBFD 301353Z AUTO VRB04KT 10SM -RA OVC017 13/11 A3006 RMK AO2 RAB52 SLP177 P0000 T01280106
KBFD 301253Z AUTO 19004KT 10SM OVC022 12/11 A3006 RMK AO2 SLP176 T01220106
KBFD 301153Z AUTO VRB04KT 10SM OVC024 12/11 A3004 RMK AO2 RAB10E28 SLP169 P0000 60004 70004 T01220106 10122 20067 52008
KBFD 301112Z AUTO 20003KT 8SM -RA BKN024 BKN035 OVC045 12/11 A3004 RMK AO2 RAB10 P0000 T01170106
KBFD 301053Z AUTO 00000KT 10SM FEW030 BKN048 OVC060 12/11 A3003 RMK AO2 RAB0954E45 SLP164 P0004 T01170106
KBFD 300953Z AUTO VRB03KT 10SM BKN055 OVC070 12/09 A3003 RMK AO2 SLP164 T01170094
KBFD 300853Z AUTO 00000KT 10SM OVC060 12/09 A3002 RMK AO2 SLP159 T01170094 55003
KBFD 300753Z AUTO 22003KT 10SM OVC060 12/09 A3002 RMK AO2 SLP159 T01170094
KBFD 300653Z AUTO 00000KT 10SM OVC060 08/07 A3002 RMK AO2 SLP163 T00830067
KBFD 300553Z AUTO 00000KT 10SM FEW065 07/06 A3003 RMK AO2 SLP168 T00670056 10156 20067 58002
KBFD 300453Z AUTO 00000KT 7SM CLR 07/06 A3003 RMK AO2 SLP170 T00720061 401720072
KBFD 300436Z AUTO 00000KT 6SM BR SCT001 08/07 A3003 RMK AO2 T00830072
KBFD 300432Z AUTO 00000KT 2SM BR BKN001 08/07 A3004 RMK AO2 T00830072
KBFD 300427Z AUTO 00000KT 3/4SM BR VV001 08/07 A3003 RMK AO2 T00830072
KBFD 300419Z AUTO 00000KT 1 1/2SM BR BKN001 08/07 A3003 RMK AO2 T00780067
KBFD 300415Z AUTO 00000KT 10SM BKN001 08/07 A3004 RMK AO2 T00780067
KBFD 300401Z AUTO 00000KT 5SM BR FEW002 08/07 A3004 RMK AO2 T00780067
KBFD 300353Z AUTO 00000KT 2 1/2SM BR CLR 08/07 A3004 RMK AO2 VIS 1 1/2V5 SLP170 T00830072
KBFD 300253Z AUTO 00000KT 7SM CLR 09/08 A3003 RMK AO2 SLP169 T00940083 50004
KBFD 300153Z AUTO 00000KT 5SM BR CLR 10/09 A3004 RMK AO2 SLP170 T01000089
KBFD 300053Z AUTO 00000KT 10SM CLR 12/10 A3002 RMK AO2 SLP164 T01220100
KBFD 292353Z AUTO 31003KT 10SM SCT029 BKN070 16/10 A3002 RMK AO2 SLP162 T01560100 10172 20150 51008
KBFD 292253Z AUTO 28008KT 10SM SCT030 BKN035 BKN070 17/09 A3001 RMK AO2 SLP157 T01670089
KBFD 292153Z AUTO 30006KT 10SM FEW028 SCT046 OVC060 16/09 A3001 RMK AO2 SLP158 T01560094
KBFD 292053Z AUTO 29005KT 10SM FEW027 OVC070 17/10 A2999 RMK AO2 SLP151 T01670100 50002
KBFD 291953Z AUTO 30006KT 10SM FEW028 OVC065 16/09 A2999 RMK AO2 SLP152 T01610089
KBFD 291853Z AUTO 30006KT 10SM FEW027 SCT040 OVC055 16/09 A2999 RMK AO2 SLP150 T01560094
KBFD 291753Z AUTO 27004KT 10SM FEW042 OVC055 16/09 A2999 RMK AO2 SLP149 T01560089 10161 20111 58002
KBFD 291653Z AUTO 31006KT 10SM SCT023 OVC046 15/09 A2999 RMK AO2 SLP150 T01500089
KBFD 291645Z AUTO 30007KT 10SM BKN023 OVC048 15/09 A2999 RMK AO2 T01500089
KBFD 291553Z AUTO 28006KT 10SM FEW017 OVC042 14/09 A2999 RMK AO2 SLP151 T01440089
KBFD 291453Z AUTO 29005KT 10SM FEW017 OVC044 14/09 A2998 RMK AO2 SLP148 T01390094 51012
KBFD 291431Z AUTO 29004KT 10SM SCT011 SCT017 OVC043 13/10 A2998 RMK AO2 T01330100
KBFD 291412Z AUTO 27004KT 10SM BKN011 OVC043 13/10 A2998 RMK AO2 T01330100
KBFD 291353Z AUTO 00000KT 10SM BKN009 BKN013 OVC044 13/10 A2998 RMK AO2 CIG 007V011 SLP146 T01280100
KBFD 291339Z AUTO 29006KT 10SM BKN009 BKN012 OVC044 13/10 A2997 RMK AO2 CIG 006V011 T01280100
KBFD 291314Z AUTO VRB03KT 10SM SCT008 OVC043 12/10 A2997 RMK AO2 T01170100
KBFD 291253Z AUTO 30004KT 10SM BKN007 OVC011 12/10 A2996 RMK AO2 CIG 004V009 SLP143 T01170100
KBFD 291233Z AUTO 28005KT 10SM BKN006 OVC039 11/10 A2996 RMK AO2 CIG 003V008 T01110100
KBFD 291153Z AUTO 28004KT 10SM BKN003 BKN007 OVC041 11/10 A2995 RMK AO2 SLP137 70032 T01110100 10117 20083 53012
KBFD 291143Z AUTO VRB04KT 10SM SCT003 BKN007 OVC041 11/09 A2995 RMK AO2 T01060094
KBFD 291136Z AUTO 00000KT 10SM SCT007 BKN015 OVC041 11/09 A2994 RMK AO2 T01060094
KBFD 291126Z AUTO 28004KT 10SM SCT006 SCT015 OVC041 11/09 A2994 RMK AO2 T01060094
KBFD 291109Z AUTO 29004KT 10SM SCT015 OVC042 11/09 A2994 RMK AO2 T01060089
KBFD 291053Z AUTO 30003KT 10SM BKN013 OVC043 11/09 A2993 RMK AO2 SLP133 T01060089
KBFD 291045Z AUTO 26004KT 10SM BKN013 OVC045 10/09 A2993 RMK AO2 T01000089
KBFD 290953Z AUTO 00000KT 10SM BKN043 10/09 A2992 RMK AO2 SLP128 T01000089
KBFD 290916Z AUTO 29004KT 10SM SCT021 OVC043 11/09 A2991 RMK AO2 T01060094